createdAt,value
2019-03-31T00:01:11.735Z,8.02
2019-03-31T00:03:39.390Z,7.95
2019-03-31T00:06:07.091Z,7.90
2019-03-31T00:08:34.992Z,7.78
2019-03-31T00:11:02.660Z,7.86
2019-03-31T00:13:30.315Z,7.90
2019-03-31T00:15:57.968Z,7.72
2019-03-31T00:18:25.649Z,7.62
2019-03-31T00:20:53.293Z,7.61
2019-03-31T00:23:20.942Z,7.71
2019-03-31T00:25:51.504Z,7.54
2019-03-31T00:28:19.303Z,7.65
2019-03-31T00:30:46.980Z,7.65
2019-03-31T00:33:14.645Z,7.39
2019-03-31T00:35:42.295Z,7.25
2019-03-31T00:38:09.951Z,7.38
2019-03-31T00:40:37.626Z,7.23
2019-03-31T00:43:05.280Z,7.32
2019-03-31T00:45:32.935Z,7.28
2019-03-31T00:48:00.622Z,6.91
2019-03-31T00:50:28.315Z,7.00
2019-03-31T00:52:55.987Z,7.05
2019-03-31T00:55:23.675Z,7.08
2019-03-31T00:57:51.340Z,6.69
2019-03-31T01:00:38.047Z,6.89
2019-03-31T01:03:05.875Z,6.61
2019-03-31T01:05:33.817Z,6.71
2019-03-31T01:08:01.461Z,6.71
2019-03-31T01:10:29.120Z,6.72
2019-03-31T01:12:56.802Z,6.75
2019-03-31T01:15:25.276Z,6.73
2019-03-31T01:17:52.957Z,6.67
2019-03-31T01:20:20.619Z,6.41
2019-03-31T01:22:48.266Z,6.62
2019-03-31T01:25:16.614Z,6.59
2019-03-31T01:27:44.440Z,6.51
2019-03-31T01:30:13.230Z,6.59
2019-03-31T01:32:41.424Z,6.58
2019-03-31T01:35:10.292Z,6.50
2019-03-31T01:37:37.983Z,6.43
2019-03-31T01:40:05.720Z,6.48
2019-03-31T01:42:33.371Z,6.48
2019-03-31T01:45:01.033Z,6.24
2019-03-31T01:47:28.713Z,6.37
2019-03-31T01:49:56.380Z,6.45
2019-03-31T01:52:24.034Z,6.14
2019-03-31T01:54:51.713Z,6.29
2019-03-31T01:57:19.487Z,6.32
2019-03-31T01:59:47.171Z,6.18
2019-03-31T02:02:20.572Z,6.31
2019-03-31T02:04:48.257Z,6.36
2019-03-31T02:07:15.907Z,6.05
2019-03-31T02:09:43.568Z,6.30
2019-03-31T02:12:11.271Z,6.15
2019-03-31T02:14:39.007Z,6.27
2019-03-31T02:17:06.678Z,6.13
2019-03-31T02:19:34.335Z,6.37
2019-03-31T02:22:01.987Z,6.30
2019-03-31T02:24:29.636Z,6.50
2019-03-31T02:26:57.296Z,6.27
2019-03-31T02:29:24.943Z,6.54
2019-03-31T02:31:52.722Z,6.42
2019-03-31T02:34:20.443Z,6.49
2019-03-31T02:36:48.117Z,6.57
2019-03-31T02:39:15.867Z,6.65
2019-03-31T02:41:43.541Z,6.57
2019-03-31T02:44:11.187Z,6.48
2019-03-31T02:46:38.851Z,6.62
2019-03-31T02:49:06.528Z,6.61
2019-03-31T02:51:34.194Z,6.60
2019-03-31T02:54:01.851Z,6.52
2019-03-31T02:56:29.508Z,6.35
2019-03-31T02:58:57.163Z,6.46
2019-03-31T03:01:24.824Z,6.57
2019-03-31T03:03:52.471Z,6.51
2019-03-31T03:06:20.189Z,6.29
2019-03-31T03:08:47.849Z,6.35
2019-03-31T03:11:15.568Z,6.06
2019-03-31T03:13:43.225Z,6.10
2019-03-31T03:16:10.877Z,6.26
2019-03-31T03:18:38.532Z,6.40
2019-03-31T03:21:06.189Z,6.22
2019-03-31T03:23:33.834Z,6.32
2019-03-31T03:26:01.493Z,6.34
2019-03-31T03:28:29.142Z,6.43
2019-03-31T03:30:56.916Z,6.49
2019-03-31T03:33:24.944Z,6.57
2019-03-31T03:35:52.608Z,6.60
2019-03-31T03:38:20.283Z,6.54
2019-03-31T03:40:48.077Z,6.58
2019-03-31T03:43:15.780Z,6.50
2019-03-31T03:45:43.440Z,6.58
2019-03-31T03:48:11.145Z,6.60
2019-03-31T03:50:38.858Z,6.43
2019-03-31T03:53:06.541Z,6.42
2019-03-31T03:55:34.225Z,6.61
2019-03-31T03:58:01.872Z,6.55
2019-03-31T04:00:29.536Z,6.58
2019-03-31T04:02:57.185Z,6.63
2019-03-31T04:05:24.849Z,6.54
2019-03-31T04:07:52.511Z,6.61
2019-03-31T04:10:20.333Z,6.58
2019-03-31T04:12:47.988Z,6.61
2019-03-31T04:15:15.644Z,6.65
2019-03-31T04:17:43.307Z,6.69
2019-03-31T04:20:10.959Z,6.59
2019-03-31T04:22:38.619Z,6.60
2019-03-31T04:25:06.301Z,6.43
2019-03-31T04:27:33.969Z,6.52
2019-03-31T04:30:01.769Z,6.39
2019-03-31T04:32:29.490Z,6.37
2019-03-31T04:34:57.258Z,6.27
2019-03-31T04:37:25.028Z,6.28
2019-03-31T04:39:52.684Z,6.18
2019-03-31T04:42:20.349Z,6.18
2019-03-31T04:44:48.019Z,6.12
2019-03-31T04:47:15.696Z,5.97
2019-03-31T04:49:43.368Z,6.09
2019-03-31T04:52:11.106Z,6.10
2019-03-31T04:54:38.763Z,6.10
2019-03-31T04:57:06.607Z,6.14
2019-03-31T04:59:34.267Z,5.97
2019-03-31T05:02:01.926Z,5.82
2019-03-31T05:04:29.593Z,5.88
2019-03-31T05:06:57.262Z,5.69
2019-03-31T05:09:24.918Z,5.83
2019-03-31T05:11:52.961Z,5.76
2019-03-31T05:14:20.596Z,5.79
2019-03-31T05:16:48.255Z,5.78
2019-03-31T05:19:15.915Z,5.75
2019-03-31T05:21:43.583Z,5.73
2019-03-31T05:24:11.262Z,5.69
2019-03-31T05:26:38.929Z,5.81
2019-03-31T05:29:06.594Z,5.88
2019-03-31T05:31:34.275Z,5.72
2019-03-31T05:34:01.933Z,5.67
2019-03-31T05:36:29.587Z,5.80
2019-03-31T05:38:57.253Z,5.97
2019-03-31T05:41:25.048Z,6.17
2019-03-31T05:44:05.094Z,6.19
2019-03-31T05:46:22.164Z,6.29
2019-03-31T05:48:49.819Z,6.47
2019-03-31T05:51:17.493Z,6.67
2019-03-31T05:53:45.143Z,6.89
2019-03-31T05:56:12.815Z,7.04
2019-03-31T05:58:40.479Z,7.01
2019-03-31T06:01:08.131Z,7.17
2019-03-31T06:03:35.784Z,7.33
2019-03-31T06:06:03.449Z,7.65
2019-03-31T06:08:31.149Z,7.52
2019-03-31T06:10:58.795Z,7.74
2019-03-31T06:13:26.452Z,7.89
2019-03-31T06:15:54.123Z,8.00
2019-03-31T06:18:21.782Z,8.21
2019-03-31T06:20:49.438Z,8.25
2019-03-31T06:23:17.092Z,8.38
2019-03-31T06:25:44.744Z,8.25
2019-03-31T06:28:12.405Z,8.55
2019-03-31T06:30:40.064Z,8.77
2019-03-31T06:33:07.735Z,8.72
2019-03-31T06:35:35.388Z,8.84
2019-03-31T06:38:03.050Z,9.06
2019-03-31T06:40:30.719Z,8.99
2019-03-31T06:42:58.395Z,9.30
2019-03-31T06:45:26.036Z,9.34
2019-03-31T06:47:53.689Z,9.50
2019-03-31T06:50:21.365Z,9.63
2019-03-31T06:52:49.022Z,9.72
2019-03-31T06:55:16.675Z,9.71
2019-03-31T06:57:44.335Z,9.80
2019-03-31T07:00:12.056Z,10.05
2019-03-31T07:02:39.721Z,10.13
2019-03-31T07:05:07.455Z,10.27
2019-03-31T07:07:35.141Z,10.27
2019-03-31T07:10:02.812Z,10.51
2019-03-31T07:12:30.489Z,10.59
2019-03-31T07:14:58.153Z,10.75
2019-03-31T07:17:25.815Z,10.76
2019-03-31T07:19:53.474Z,10.88
2019-03-31T07:22:24.233Z,10.74
2019-03-31T07:24:50.520Z,10.92
2019-03-31T07:27:18.165Z,11.38
2019-03-31T07:29:45.828Z,11.52
2019-03-31T07:32:13.492Z,11.61
2019-03-31T07:34:41.153Z,11.69
2019-03-31T07:37:08.816Z,11.66
2019-03-31T07:39:36.731Z,11.41
2019-03-31T07:42:04.615Z,12.14
2019-03-31T07:44:32.579Z,12.08
2019-03-31T07:47:00.255Z,12.32
2019-03-31T07:49:27.950Z,12.28
2019-03-31T07:51:55.635Z,12.33
2019-03-31T07:54:23.291Z,12.55
2019-03-31T07:56:50.953Z,12.42
2019-03-31T07:59:19.528Z,12.65
2019-03-31T08:01:47.183Z,12.59
2019-03-31T08:04:14.845Z,12.55
2019-03-31T08:06:42.503Z,12.59
2019-03-31T08:09:10.171Z,12.74
2019-03-31T08:11:38.035Z,13.21
2019-03-31T08:14:05.820Z,12.82
2019-03-31T08:16:33.491Z,12.86
2019-03-31T08:19:01.203Z,13.09
2019-03-31T08:21:28.868Z,13.27
2019-03-31T08:23:56.542Z,13.09
2019-03-31T08:26:24.221Z,13.38
2019-03-31T08:28:51.884Z,13.66
2019-03-31T08:31:19.563Z,13.74
2019-03-31T08:33:47.380Z,13.76
2019-03-31T08:36:15.086Z,13.92
2019-03-31T08:38:42.825Z,13.76
2019-03-31T08:41:10.481Z,13.91
2019-03-31T08:43:38.234Z,13.94
2019-03-31T08:46:06.033Z,14.07
2019-03-31T08:48:33.687Z,14.29
2019-03-31T08:55:53.227Z,14.74
2019-03-31T09:00:52.116Z,14.46
2019-03-31T09:05:45.773Z,14.41
2019-03-31T09:08:13.889Z,14.38
2019-03-31T09:10:41.546Z,14.26
2019-03-31T09:13:09.216Z,14.41
2019-03-31T09:15:37.057Z,14.71
2019-03-31T09:18:04.804Z,15.02
2019-03-31T09:20:32.471Z,15.15
2019-03-31T09:23:00.139Z,14.77
2019-03-31T09:25:27.937Z,14.67
2019-03-31T09:27:55.611Z,14.32
2019-03-31T09:30:23.276Z,14.18
2019-03-31T09:35:17.057Z,14.62
2019-03-31T09:37:44.718Z,14.78
2019-03-31T09:40:12.415Z,14.68
2019-03-31T09:45:06.127Z,14.93
2019-03-31T09:47:33.803Z,14.74
2019-03-31T09:50:01.508Z,14.58
2019-03-31T09:52:29.167Z,14.13
2019-03-31T09:54:56.844Z,13.80
2019-03-31T09:57:24.504Z,13.76
2019-03-31T09:59:52.176Z,13.72
2019-03-31T10:02:19.839Z,13.88
2019-03-31T10:04:47.511Z,13.96
2019-03-31T10:07:15.175Z,13.84
2019-03-31T10:09:42.845Z,13.67
2019-03-31T10:12:10.502Z,13.85
2019-03-31T10:14:38.196Z,13.77
2019-03-31T10:17:05.847Z,13.66
2019-03-31T10:19:33.580Z,13.52
2019-03-31T10:22:01.244Z,13.81
2019-03-31T10:24:28.911Z,13.67
2019-03-31T10:26:56.576Z,13.65
2019-03-31T10:29:24.268Z,13.33
2019-03-31T10:31:52.167Z,13.61
2019-03-31T10:34:19.791Z,13.49
2019-03-31T10:36:47.448Z,13.48
2019-03-31T10:39:15.137Z,13.55
2019-03-31T10:41:42.908Z,13.31
2019-03-31T10:44:10.570Z,13.37
2019-03-31T10:46:38.247Z,13.80
2019-03-31T10:49:05.922Z,13.62
2019-03-31T10:51:34.158Z,13.72
2019-03-31T10:54:04.564Z,14.40
2019-03-31T10:56:31.345Z,14.17
2019-03-31T10:58:59.053Z,14.23
2019-03-31T11:03:52.643Z,14.02
2019-03-31T11:06:20.310Z,14.06
2019-03-31T11:08:47.979Z,14.39
2019-03-31T11:11:15.639Z,13.96
2019-03-31T11:13:43.423Z,13.52
2019-03-31T11:16:11.096Z,14.02
2019-03-31T11:18:38.755Z,13.82
2019-03-31T11:21:13.070Z,14.32
2019-03-31T11:23:40.736Z,14.37
2019-03-31T11:26:08.600Z,14.03
2019-03-31T11:28:36.261Z,14.31
2019-03-31T11:31:03.923Z,14.32
2019-03-31T11:33:31.584Z,14.47
2019-03-31T11:35:59.254Z,14.53
2019-03-31T11:38:26.923Z,14.69
2019-03-31T11:40:54.583Z,14.66
2019-03-31T11:43:22.336Z,14.27
2019-03-31T11:45:50.170Z,13.96
2019-03-31T11:48:17.844Z,14.34
2019-03-31T11:50:45.513Z,14.35
2019-03-31T11:53:13.186Z,14.24
2019-03-31T11:55:40.852Z,13.91
2019-03-31T11:58:08.525Z,13.65
2019-03-31T12:00:40.788Z,13.95
2019-03-31T12:03:08.452Z,13.72
2019-03-31T12:05:36.403Z,13.63
2019-03-31T12:08:04.136Z,13.83
2019-03-31T12:10:31.802Z,13.85
2019-03-31T12:12:59.462Z,13.64
2019-03-31T12:15:27.154Z,13.71
2019-03-31T12:17:54.832Z,13.88
2019-03-31T12:20:22.508Z,13.87
2019-03-31T12:22:50.159Z,14.28
2019-03-31T12:25:19.804Z,14.46
2019-03-31T12:27:47.240Z,14.43
2019-03-31T12:30:14.928Z,14.29
2019-03-31T12:32:42.590Z,14.29
2019-03-31T12:35:10.260Z,14.00
2019-03-31T12:37:42.643Z,14.04
2019-03-31T12:40:07.330Z,14.07
2019-03-31T12:42:34.997Z,13.93
2019-03-31T12:45:02.700Z,13.58
2019-03-31T12:47:31.091Z,13.24
2019-03-31T12:49:58.754Z,13.43
2019-03-31T12:52:26.415Z,13.07
2019-03-31T12:54:54.166Z,13.13
2019-03-31T12:57:22.228Z,13.18
2019-03-31T12:59:49.959Z,13.01
2019-03-31T13:02:17.617Z,13.63
2019-03-31T13:04:45.279Z,13.55
2019-03-31T13:07:14.919Z,13.69
2019-03-31T13:09:42.492Z,13.21
2019-03-31T13:12:10.227Z,13.17
2019-03-31T13:14:37.889Z,13.20
2019-03-31T13:17:05.696Z,13.29
2019-03-31T13:19:33.418Z,13.41
2019-03-31T13:22:01.121Z,13.53
2019-03-31T13:24:28.803Z,13.54
2019-03-31T13:26:56.463Z,13.74
2019-03-31T13:29:24.137Z,13.84
2019-03-31T13:31:51.795Z,13.46
2019-03-31T13:34:19.458Z,13.56
2019-03-31T13:36:47.121Z,13.75
2019-03-31T13:39:14.776Z,13.50
2019-03-31T13:41:42.439Z,13.42
2019-03-31T13:44:10.104Z,13.36
2019-03-31T13:46:37.755Z,13.53
2019-03-31T13:49:05.423Z,13.55
2019-03-31T13:51:33.362Z,13.31
2019-03-31T13:54:01.046Z,13.02
2019-03-31T13:56:29.553Z,12.76
2019-03-31T13:58:57.824Z,12.56
2019-03-31T14:01:25.492Z,12.95
2019-03-31T14:03:53.234Z,13.10
2019-03-31T14:06:21.495Z,12.74
2019-03-31T14:08:49.155Z,12.96
2019-03-31T14:11:16.812Z,13.01
2019-03-31T14:13:44.479Z,12.86
2019-03-31T14:16:12.157Z,12.77
2019-03-31T14:18:39.827Z,12.90
2019-03-31T14:21:07.493Z,12.98
2019-03-31T14:23:35.167Z,12.83
2019-03-31T14:26:02.844Z,12.58
2019-03-31T14:28:30.543Z,12.72
2019-03-31T14:30:58.201Z,12.43
2019-03-31T14:33:25.851Z,12.66
2019-03-31T14:35:53.567Z,12.63
2019-03-31T14:38:21.309Z,12.58
2019-03-31T14:40:49.150Z,12.44
2019-03-31T14:43:16.864Z,12.62
2019-03-31T14:45:44.535Z,12.40
2019-03-31T14:48:12.198Z,12.09
2019-03-31T14:50:40.000Z,11.95
2019-03-31T14:53:07.676Z,12.18
2019-03-31T14:55:35.346Z,12.02
2019-03-31T14:58:03.010Z,12.36
2019-03-31T15:00:30.679Z,12.19
2019-03-31T15:02:58.347Z,12.16
2019-03-31T15:05:26.135Z,12.16
2019-03-31T15:07:53.894Z,12.02
2019-03-31T15:10:21.563Z,11.98
2019-03-31T15:12:49.235Z,12.02
2019-03-31T15:15:16.981Z,12.03
2019-03-31T15:17:44.647Z,11.86
2019-03-31T15:20:12.398Z,11.80
2019-03-31T15:22:40.064Z,11.66
2019-03-31T15:25:07.746Z,11.79
2019-03-31T15:27:35.419Z,11.90
2019-03-31T15:30:03.076Z,11.83
2019-03-31T15:32:30.739Z,11.64
2019-03-31T15:34:58.399Z,11.87
2019-03-31T15:37:26.149Z,11.73
2019-03-31T15:39:53.807Z,11.55
2019-03-31T15:42:21.832Z,11.63
2019-03-31T15:44:49.519Z,11.69
2019-03-31T15:47:17.188Z,11.47
2019-03-31T15:49:44.852Z,11.56
2019-03-31T15:52:12.539Z,11.57
2019-03-31T15:54:40.205Z,11.48
2019-03-31T15:57:07.865Z,11.45
2019-03-31T15:59:35.980Z,11.55
2019-03-31T16:02:03.664Z,11.45
2019-03-31T16:04:31.335Z,11.40
2019-03-31T16:06:59.002Z,11.43
2019-03-31T16:09:26.665Z,11.39
2019-03-31T16:11:54.397Z,11.44
2019-03-31T16:14:22.093Z,11.49
2019-03-31T16:16:49.759Z,11.37
2019-03-31T16:19:17.430Z,11.35
2019-03-31T16:21:45.103Z,11.36
2019-03-31T16:24:12.778Z,11.36
2019-03-31T16:26:40.459Z,11.31
2019-03-31T16:29:08.124Z,11.37
2019-03-31T16:31:35.807Z,11.32
2019-03-31T16:34:03.476Z,11.29
2019-03-31T16:36:31.147Z,11.15
2019-03-31T16:38:58.835Z,11.23
2019-03-31T16:41:26.488Z,11.20
2019-03-31T16:43:54.150Z,11.16
2019-03-31T16:46:21.811Z,11.25
2019-03-31T16:48:49.538Z,11.18
2019-03-31T16:51:17.196Z,11.09
2019-03-31T16:53:44.851Z,11.06
2019-03-31T16:56:12.512Z,11.18
2019-03-31T16:58:40.209Z,11.00
2019-03-31T17:01:07.856Z,11.04
2019-03-31T17:03:35.607Z,11.08
2019-03-31T17:06:03.268Z,11.03
2019-03-31T17:10:56.884Z,10.95
2019-03-31T17:15:50.474Z,10.93
2019-03-31T17:18:18.144Z,10.85
2019-03-31T17:20:45.800Z,10.74
2019-03-31T17:23:13.455Z,10.67
2019-03-31T17:25:41.130Z,10.72
2019-03-31T17:28:10.334Z,10.70
2019-03-31T17:33:04.148Z,10.70
2019-03-31T17:35:31.800Z,10.72
2019-03-31T17:37:59.476Z,10.52
2019-03-31T17:40:27.120Z,10.59
2019-03-31T17:42:54.767Z,10.46
2019-03-31T17:45:22.446Z,10.39
2019-03-31T17:47:50.099Z,10.42
2019-03-31T17:50:17.768Z,10.32
2019-03-31T17:52:45.431Z,10.37
2019-03-31T17:55:13.079Z,10.38
2019-03-31T17:57:42.433Z,10.35
2019-03-31T18:02:36.035Z,10.39
2019-03-31T18:07:29.615Z,10.31
2019-03-31T18:09:57.300Z,10.27
2019-03-31T18:12:24.991Z,10.26
2019-03-31T18:14:52.637Z,10.20
2019-03-31T18:17:20.423Z,10.10
2019-03-31T18:19:48.079Z,10.15
2019-03-31T18:22:16.961Z,10.15
2019-03-31T18:24:44.940Z,9.99
2019-03-31T18:27:12.618Z,9.92
2019-03-31T18:29:40.268Z,9.89
2019-03-31T18:32:07.919Z,9.73
2019-03-31T18:34:35.602Z,9.65
2019-03-31T18:37:03.280Z,9.53
2019-03-31T18:39:30.941Z,9.52
2019-03-31T18:41:58.576Z,9.50
2019-03-31T18:44:26.223Z,9.40
2019-03-31T18:46:53.875Z,9.47
2019-03-31T18:49:21.527Z,9.48
2019-03-31T18:51:49.181Z,9.46
2019-03-31T18:54:25.290Z,9.33
2019-03-31T18:56:59.355Z,9.27
2019-03-31T18:59:37.305Z,9.24
2019-03-31T19:02:18.896Z,9.19
2019-03-31T19:04:56.520Z,9.08
2019-03-31T19:07:35.944Z,9.06
2019-03-31T19:10:24.677Z,9.05
2019-03-31T19:12:49.835Z,9.07
2019-03-31T19:15:22.782Z,8.88
2019-03-31T19:18:09.502Z,8.86
2019-03-31T19:20:47.102Z,8.83
2019-03-31T19:23:31.049Z,8.79
2019-03-31T19:26:04.016Z,8.72
2019-03-31T19:28:41.971Z,8.81
2019-03-31T19:31:17.481Z,8.68
2019-03-31T19:33:50.408Z,8.65
2019-03-31T19:36:28.369Z,8.67
2019-03-31T19:39:08.999Z,8.52
2019-03-31T19:41:41.991Z,8.52
2019-03-31T19:44:17.803Z,8.48
2019-03-31T19:46:53.136Z,8.46
2019-03-31T19:49:29.294Z,8.33
2019-03-31T19:52:06.781Z,8.30
2019-03-31T19:54:45.951Z,8.19
2019-03-31T19:57:35.676Z,8.19
2019-03-31T20:00:14.317Z,8.17
2019-03-31T20:02:52.885Z,8.06
2019-03-31T20:05:25.816Z,7.88
2019-03-31T20:08:08.899Z,7.98
2019-03-31T20:10:43.715Z,7.82
2019-03-31T20:13:22.809Z,7.83
2019-03-31T20:16:08.207Z,7.85
2019-03-31T20:18:42.925Z,7.92
2019-03-31T20:21:32.115Z,7.72
2019-03-31T20:24:04.344Z,7.58
2019-03-31T20:26:43.071Z,7.74
2019-03-31T20:29:17.284Z,7.74
2019-03-31T20:31:58.660Z,7.46
2019-03-31T20:34:34.107Z,7.42
2019-03-31T20:37:19.283Z,7.26
2019-03-31T20:40:05.536Z,7.23
2019-03-31T20:42:53.256Z,7.24
2019-03-31T21:02:23.128Z,6.85
2019-03-31T21:04:50.808Z,6.83
2019-03-31T21:07:18.494Z,6.83
2019-03-31T21:09:46.154Z,6.69
2019-03-31T21:12:13.920Z,6.67
2019-03-31T21:14:41.576Z,6.71
2019-03-31T21:17:09.225Z,6.90
2019-03-31T21:19:36.938Z,6.94
2019-03-31T21:22:04.588Z,7.19
2019-03-31T21:24:32.255Z,6.91
2019-03-31T21:26:59.903Z,6.95
2019-03-31T21:29:27.556Z,6.80
2019-03-31T21:31:55.199Z,6.69
2019-03-31T21:34:22.850Z,6.61
2019-03-31T21:36:50.495Z,6.58
2019-03-31T21:39:18.152Z,6.42
2019-03-31T21:41:45.807Z,6.27
2019-03-31T21:44:13.462Z,6.33
2019-03-31T21:46:41.110Z,6.10
2019-03-31T21:49:08.783Z,6.19
2019-03-31T21:51:36.445Z,6.22
2019-03-31T21:54:04.108Z,6.33
2019-03-31T21:56:31.750Z,6.24
2019-03-31T21:58:59.398Z,6.17
2019-03-31T22:01:27.036Z,6.16
2019-03-31T22:03:54.691Z,6.14
2019-03-31T22:06:22.327Z,6.10
2019-03-31T22:08:49.984Z,6.19
2019-03-31T22:11:17.655Z,6.16
2019-03-31T22:13:45.315Z,6.00
2019-03-31T22:16:13.030Z,5.90
2019-03-31T22:18:41.300Z,5.62
2019-03-31T22:21:09.247Z,5.59
2019-03-31T22:23:36.949Z,5.71
2019-03-31T22:26:04.604Z,5.36
2019-03-31T22:28:32.362Z,5.42
2019-03-31T22:31:00.095Z,5.12
2019-03-31T22:33:27.745Z,5.19
2019-03-31T22:36:00.746Z,4.96
2019-03-31T22:38:28.393Z,5.25
2019-03-31T22:40:56.191Z,5.17
2019-03-31T22:43:23.828Z,4.87
2019-03-31T22:45:51.475Z,4.88
2019-03-31T22:48:19.254Z,5.13
2019-03-31T22:50:46.891Z,4.96
2019-03-31T22:53:14.552Z,4.85
2019-03-31T22:55:42.196Z,5.03
2019-03-31T22:58:10.019Z,5.00
2019-03-31T23:00:37.762Z,4.92
2019-03-31T23:03:05.548Z,5.14
2019-03-31T23:05:33.247Z,4.97
2019-03-31T23:08:00.883Z,4.79
2019-03-31T23:10:28.535Z,4.65
2019-03-31T23:12:56.191Z,4.97
2019-03-31T23:15:23.844Z,4.89
2019-03-31T23:17:51.512Z,4.53
2019-03-31T23:20:19.171Z,4.80
2019-03-31T23:22:46.851Z,4.64
2019-03-31T23:25:14.901Z,4.32
2019-03-31T23:27:42.614Z,4.49
2019-03-31T23:30:11.154Z,4.77
2019-03-31T23:32:38.815Z,4.28
2019-03-31T23:35:06.608Z,4.26
2019-03-31T23:37:34.463Z,4.35
2019-03-31T23:40:02.303Z,4.61
2019-03-31T23:42:29.955Z,4.50
2019-03-31T23:44:57.606Z,4.48
2019-03-31T23:47:25.247Z,4.70
2019-03-31T23:49:52.892Z,4.99
2019-03-31T23:52:20.547Z,5.38
2019-03-31T23:54:48.191Z,5.17
2019-03-31T23:57:15.959Z,4.94
2019-03-31T23:59:43.899Z,4.66
